createdAt,value
2023-05-18T00:02:26.536Z,12.00
2023-05-18T00:04:56.111Z,12.00
2023-05-18T00:07:24.113Z,11.90
2023-05-18T00:09:52.188Z,11.90
2023-05-18T00:12:20.272Z,11.90
2023-05-18T00:14:48.401Z,11.90
2023-05-18T00:17:16.683Z,11.90
2023-05-18T00:19:46.621Z,11.90
2023-05-18T00:22:18.979Z,11.90
2023-05-18T00:24:47.337Z,11.90
2023-05-18T00:27:15.649Z,11.90
2023-05-18T00:29:43.644Z,11.90
2023-05-18T00:32:11.943Z,11.80
2023-05-18T00:34:39.931Z,11.80
2023-05-18T00:37:07.961Z,11.80
2023-05-18T00:39:37.347Z,11.80
2023-05-18T00:42:05.903Z,11.80
2023-05-18T00:44:33.906Z,11.70
2023-05-18T00:47:02.041Z,11.70
2023-05-18T00:49:30.263Z,11.70
2023-05-18T00:51:58.731Z,11.60
2023-05-18T00:54:27.418Z,11.60
2023-05-18T00:56:56.962Z,11.50
2023-05-18T00:59:24.958Z,11.50
2023-05-18T01:01:53.100Z,11.50
2023-05-18T01:04:21.719Z,11.50
2023-05-18T01:06:50.073Z,11.50
2023-05-18T01:09:18.414Z,11.50
2023-05-18T01:11:57.942Z,11.50
2023-05-18T01:14:37.322Z,11.50
2023-05-18T01:17:12.780Z,11.40
2023-05-18T01:20:02.507Z,11.40
2023-05-18T01:22:44.105Z,11.40
2023-05-18T01:25:19.627Z,11.30
2023-05-18T01:27:50.580Z,11.30
2023-05-18T01:30:19.052Z,11.30
2023-05-18T01:32:47.663Z,11.30
2023-05-18T01:35:15.727Z,11.20
2023-05-18T01:37:43.772Z,11.20
2023-05-18T01:40:11.995Z,11.20
2023-05-18T01:42:51.103Z,11.10
2023-05-18T01:45:23.890Z,11.10
2023-05-18T01:47:57.100Z,11.10
2023-05-18T01:50:31.892Z,11.00
2023-05-18T01:53:07.454Z,11.00
2023-05-18T01:55:39.758Z,11.00
2023-05-18T01:58:09.173Z,11.00
2023-05-18T02:00:38.910Z,11.00
2023-05-18T02:03:06.945Z,11.00
2023-05-18T02:05:35.028Z,10.90
2023-05-18T02:08:03.359Z,10.90
2023-05-18T02:10:31.456Z,11.00
2023-05-18T02:12:59.466Z,11.00
2023-05-18T02:15:27.636Z,10.90
2023-05-18T02:17:58.469Z,10.90
2023-05-18T02:20:28.985Z,10.90
2023-05-18T02:22:58.301Z,11.00
2023-05-18T02:25:26.312Z,11.00
2023-05-18T02:27:54.329Z,11.00
2023-05-18T02:30:22.457Z,11.00
2023-05-18T02:32:50.441Z,11.00
2023-05-18T02:35:19.862Z,11.00
2023-05-18T02:37:50.025Z,11.00
2023-05-18T02:40:18.241Z,11.00
2023-05-18T02:42:46.279Z,11.00
2023-05-18T02:45:14.278Z,11.00
2023-05-18T02:47:43.982Z,11.00
2023-05-18T02:50:12.477Z,11.00
2023-05-18T02:52:42.199Z,10.90
2023-05-18T02:55:10.823Z,11.00
2023-05-18T02:57:38.846Z,11.00
2023-05-18T03:00:11.634Z,11.00
2023-05-18T03:02:40.334Z,11.00
2023-05-18T03:05:09.660Z,11.00
2023-05-18T03:07:37.767Z,11.00
2023-05-18T03:10:08.960Z,11.00
2023-05-18T03:12:36.960Z,11.00
2023-05-18T03:15:05.550Z,11.00
2023-05-18T03:17:33.834Z,11.00
2023-05-18T03:20:04.890Z,11.00
2023-05-18T03:22:32.912Z,10.90
2023-05-18T03:25:02.397Z,10.90
2023-05-18T03:27:31.923Z,10.90
2023-05-18T03:29:59.947Z,11.00
2023-05-18T03:32:28.408Z,11.00
2023-05-18T03:34:56.407Z,11.00
2023-05-18T03:37:24.444Z,11.00
2023-05-18T03:39:52.412Z,11.00
2023-05-18T03:42:20.708Z,11.00
2023-05-18T03:44:50.058Z,11.00
2023-05-18T03:47:18.768Z,11.10
2023-05-18T03:49:46.772Z,11.00
2023-05-18T03:52:15.893Z,11.00
2023-05-18T03:54:44.241Z,11.10
2023-05-18T03:57:12.261Z,11.10
2023-05-18T03:59:40.328Z,11.00
2023-05-18T04:02:09.821Z,11.10
2023-05-18T04:04:37.840Z,11.00
2023-05-18T04:07:06.208Z,11.00
2023-05-18T04:09:34.980Z,11.00
2023-05-18T04:12:03.761Z,11.00
2023-05-18T04:14:33.077Z,11.10
2023-05-18T04:17:04.892Z,11.10
2023-05-18T04:19:35.010Z,11.10
2023-05-18T04:22:04.853Z,11.10
2023-05-18T04:24:34.495Z,11.20
2023-05-18T04:27:03.316Z,11.20
2023-05-18T04:29:32.109Z,11.20
2023-05-18T04:32:01.007Z,11.20
2023-05-18T04:34:29.891Z,11.20
2023-05-18T04:36:59.521Z,11.20
2023-05-18T04:39:27.672Z,11.20
2023-05-18T04:41:58.295Z,11.30
2023-05-18T04:44:27.389Z,11.30
2023-05-18T04:46:55.694Z,11.30
2023-05-18T04:49:23.982Z,11.30
2023-05-18T04:51:55.799Z,11.30
2023-05-18T04:54:26.633Z,11.30
2023-05-18T04:56:54.791Z,11.30
2023-05-18T04:59:26.150Z,11.30
2023-05-18T05:01:54.659Z,11.30
2023-05-18T05:04:23.726Z,11.30
2023-05-18T05:06:51.733Z,11.30
2023-05-18T05:09:19.727Z,11.20
2023-05-18T05:11:49.087Z,11.20
2023-05-18T05:14:17.157Z,11.20
2023-05-18T05:16:45.147Z,11.20
2023-05-18T05:19:13.237Z,11.20
2023-05-18T05:21:41.582Z,11.30
2023-05-18T05:24:09.658Z,11.30
2023-05-18T05:26:37.668Z,11.30
2023-05-18T05:29:07.056Z,11.30
2023-05-18T05:31:35.099Z,11.30
2023-05-18T05:34:03.250Z,11.40
2023-05-18T05:36:31.795Z,11.40
2023-05-18T05:38:59.908Z,11.40
2023-05-18T05:41:27.878Z,11.40
2023-05-18T05:43:56.859Z,11.40
2023-05-18T05:46:26.525Z,11.40
2023-05-18T05:48:54.578Z,11.50
2023-05-18T05:51:22.570Z,11.60
2023-05-18T05:53:50.600Z,11.60
2023-05-18T05:56:18.592Z,11.70
2023-05-18T05:58:46.647Z,11.70
2023-05-18T06:01:14.658Z,11.80
2023-05-18T06:03:45.270Z,11.80
2023-05-18T06:06:14.314Z,11.80
2023-05-18T06:08:42.465Z,11.80
2023-05-18T06:11:11.455Z,11.80
2023-05-18T06:13:39.760Z,11.90
2023-05-18T06:16:07.864Z,11.80
2023-05-18T06:18:36.497Z,11.80
2023-05-18T06:21:05.958Z,11.80
2023-05-18T06:23:33.958Z,11.90
2023-05-18T06:26:01.946Z,11.90
2023-05-18T06:28:29.965Z,12.00
2023-05-18T06:30:58.013Z,12.10
2023-05-18T06:33:26.500Z,12.20
2023-05-18T06:35:54.711Z,12.30
2023-05-18T06:38:24.267Z,12.40
2023-05-18T06:40:52.280Z,12.50
2023-05-18T06:43:20.319Z,12.60
2023-05-18T06:45:48.414Z,12.70
2023-05-18T06:48:16.605Z,12.70
2023-05-18T06:50:44.675Z,12.70
2023-05-18T06:53:13.513Z,12.80
2023-05-18T06:55:42.901Z,12.80
2023-05-18T06:58:11.017Z,12.80
2023-05-18T07:00:39.806Z,12.70
2023-05-18T07:03:08.424Z,12.70
2023-05-18T07:05:39.172Z,12.70
2023-05-18T07:08:07.941Z,12.80
2023-05-18T07:10:36.466Z,12.90
2023-05-18T07:13:06.054Z,12.90
2023-05-18T07:15:34.711Z,12.90
2023-05-18T07:18:03.580Z,13.00
2023-05-18T07:20:31.765Z,13.10
2023-05-18T07:22:59.827Z,13.20
2023-05-18T07:25:28.405Z,13.30
2023-05-18T07:27:56.528Z,13.20
2023-05-18T07:30:27.308Z,13.20
2023-05-18T07:32:56.547Z,13.20
2023-05-18T07:35:26.369Z,13.10
2023-05-18T07:37:54.691Z,13.20
2023-05-18T07:40:22.889Z,13.20
2023-05-18T07:42:50.900Z,13.30
2023-05-18T07:45:18.988Z,13.40
2023-05-18T07:47:48.387Z,13.40
2023-05-18T07:50:16.922Z,13.50
2023-05-18T07:52:44.898Z,13.60
2023-05-18T07:55:13.062Z,13.90
2023-05-18T07:57:41.407Z,14.20
2023-05-18T08:00:10.562Z,14.40
2023-05-18T08:02:38.762Z,14.70
2023-05-18T08:05:10.888Z,14.90
2023-05-18T08:07:39.363Z,15.10
2023-05-18T08:10:07.865Z,15.30
2023-05-18T08:12:35.918Z,15.50
2023-05-18T08:15:04.124Z,15.70
2023-05-18T08:17:32.229Z,15.90
2023-05-18T08:20:00.290Z,16.00
2023-05-18T08:22:29.726Z,16.00
2023-05-18T08:24:58.150Z,15.90
2023-05-18T08:27:26.158Z,15.70
2023-05-18T08:29:55.924Z,15.70
2023-05-18T08:32:24.132Z,15.70
2023-05-18T08:34:52.220Z,15.60
2023-05-18T08:37:20.223Z,15.50
2023-05-18T08:39:49.591Z,15.50
2023-05-18T08:42:24.509Z,15.40
2023-05-18T08:45:07.023Z,15.50
2023-05-18T08:47:37.831Z,15.50
2023-05-18T08:50:07.263Z,15.40
2023-05-18T08:52:38.755Z,15.40
2023-05-18T08:55:12.026Z,15.30
2023-05-18T08:57:43.747Z,15.40
2023-05-18T09:00:13.192Z,15.40
2023-05-18T09:02:42.777Z,15.40
2023-05-18T09:05:12.472Z,15.50
2023-05-18T09:07:42.922Z,15.70
2023-05-18T09:10:13.736Z,15.90
2023-05-18T09:12:43.719Z,16.00
2023-05-18T09:15:12.419Z,16.00
2023-05-18T09:17:40.478Z,16.00
2023-05-18T09:20:10.187Z,16.10
2023-05-18T09:22:40.332Z,16.20
2023-05-18T09:25:10.015Z,16.30
2023-05-18T09:27:39.562Z,16.30
2023-05-18T09:30:12.323Z,16.40
2023-05-18T09:32:40.852Z,16.50
2023-05-18T09:35:10.235Z,16.70
2023-05-18T09:37:42.248Z,16.90
2023-05-18T09:40:11.029Z,17.00
2023-05-18T09:42:41.846Z,17.20
2023-05-18T09:45:18.910Z,17.20
2023-05-18T09:47:47.207Z,17.20
2023-05-18T09:50:15.242Z,17.30
2023-05-18T09:52:44.274Z,17.30
2023-05-18T09:55:12.561Z,17.40
2023-05-18T09:57:44.048Z,17.40
2023-05-18T10:00:13.095Z,17.20
2023-05-18T10:02:41.779Z,17.00
2023-05-18T10:05:20.745Z,16.80
2023-05-18T10:07:49.724Z,16.70
2023-05-18T10:10:20.510Z,16.80
2023-05-18T10:12:52.411Z,16.70
2023-05-18T10:15:22.117Z,16.60
2023-05-18T10:17:51.901Z,16.50
2023-05-18T10:20:24.105Z,16.40
2023-05-18T10:22:53.115Z,16.40
2023-05-18T10:25:22.750Z,16.60
2023-05-18T10:27:57.553Z,16.90
2023-05-18T10:30:27.499Z,17.20
2023-05-18T10:32:57.850Z,17.50
2023-05-18T10:35:28.390Z,17.80
2023-05-18T10:37:58.582Z,18.00
2023-05-18T10:40:29.554Z,17.80
2023-05-18T10:43:01.524Z,17.50
2023-05-18T10:45:30.220Z,17.20
2023-05-18T10:48:00.996Z,17.00
2023-05-18T10:50:30.744Z,16.80
2023-05-18T10:53:00.822Z,16.90
2023-05-18T10:55:29.199Z,17.00
2023-05-18T10:58:04.671Z,17.10
2023-05-18T11:00:36.389Z,17.30
2023-05-18T11:03:06.129Z,17.40
2023-05-18T11:05:34.226Z,17.50
2023-05-18T11:08:03.411Z,17.40
2023-05-18T11:10:36.128Z,17.30
2023-05-18T11:13:07.128Z,17.30
2023-05-18T11:16:08.669Z,17.50
2023-05-18T11:18:47.315Z,17.60
2023-05-18T11:21:36.815Z,17.80
2023-05-18T11:24:22.971Z,18.00
2023-05-18T11:26:52.718Z,18.20
2023-05-18T11:29:24.266Z,18.40
2023-05-18T11:31:54.560Z,18.60
2023-05-18T11:34:44.801Z,18.90
2023-05-18T11:37:14.560Z,19.00
2023-05-18T11:39:55.403Z,19.00
2023-05-18T11:42:34.503Z,18.90
2023-05-18T11:45:09.362Z,18.80
2023-05-18T11:47:39.812Z,18.70
2023-05-18T11:50:08.947Z,18.60
2023-05-18T11:52:47.957Z,18.40
2023-05-18T11:55:17.461Z,18.30
2023-05-18T11:57:48.665Z,18.10
2023-05-18T12:00:20.486Z,17.90
2023-05-18T12:02:50.124Z,17.80
2023-05-18T12:05:18.837Z,17.60
2023-05-18T12:07:53.930Z,17.60
2023-05-18T12:10:23.098Z,17.70
2023-05-18T12:12:53.526Z,17.90
2023-05-18T12:15:25.215Z,18.00
2023-05-18T12:17:53.437Z,18.20
2023-05-18T12:20:25.147Z,18.40
2023-05-18T12:22:54.629Z,18.70
2023-05-18T12:25:24.302Z,19.00
2023-05-18T12:27:53.491Z,19.10
2023-05-18T12:30:24.357Z,19.10
2023-05-18T12:32:54.076Z,18.90
2023-05-18T12:35:23.752Z,18.70
2023-05-18T12:37:51.878Z,18.50
2023-05-18T12:40:21.043Z,18.30
2023-05-18T12:42:53.858Z,18.30
2023-05-18T12:45:24.605Z,18.40
2023-05-18T12:47:54.496Z,18.60
2023-05-18T12:50:23.387Z,18.80
2023-05-18T12:52:52.062Z,19.00
2023-05-18T12:55:22.772Z,19.20
2023-05-18T12:58:01.631Z,19.20
2023-05-18T13:00:33.638Z,19.10
2023-05-18T13:03:07.413Z,19.00
2023-05-18T13:05:35.739Z,18.90
2023-05-18T13:08:03.921Z,18.90
2023-05-18T13:10:33.161Z,19.00
2023-05-18T13:13:03.978Z,19.10
2023-05-18T13:15:38.699Z,19.30
2023-05-18T13:18:10.100Z,19.30
2023-05-18T13:20:41.716Z,19.40
2023-05-18T13:23:11.740Z,19.50
2023-05-18T13:25:39.878Z,19.50
2023-05-18T13:28:10.450Z,19.30
2023-05-18T13:30:40.888Z,19.20
2023-05-18T13:33:09.339Z,19.10
2023-05-18T13:35:37.616Z,19.00
2023-05-18T13:38:05.861Z,19.00
2023-05-18T13:40:34.061Z,18.90
2023-05-18T13:43:02.085Z,19.00
2023-05-18T13:45:30.936Z,19.00
2023-05-18T13:48:00.712Z,19.10
2023-05-18T13:50:29.034Z,19.30
2023-05-18T13:52:57.159Z,19.30
2023-05-18T13:55:25.217Z,19.40
2023-05-18T13:57:53.284Z,19.30
2023-05-18T14:00:21.834Z,19.30
2023-05-18T14:02:49.937Z,19.20
2023-05-18T14:05:19.505Z,19.30
2023-05-18T14:07:47.492Z,19.30
2023-05-18T14:10:15.554Z,19.40
2023-05-18T14:12:43.585Z,19.40
2023-05-18T14:15:13.869Z,19.40
2023-05-18T14:17:42.412Z,19.20
2023-05-18T14:20:11.596Z,19.20
2023-05-18T14:22:41.119Z,19.20
2023-05-18T14:25:09.750Z,19.30
2023-05-18T14:27:37.841Z,19.40
2023-05-18T14:30:07.152Z,19.50
2023-05-18T14:32:35.209Z,19.40
2023-05-18T14:35:03.654Z,19.40
2023-05-18T14:37:32.825Z,19.60
2023-05-18T14:40:02.424Z,19.80
2023-05-18T14:42:30.911Z,19.80
2023-05-18T14:44:58.934Z,19.70
2023-05-18T14:47:27.090Z,19.60
2023-05-18T14:49:55.111Z,19.70
2023-05-18T14:52:23.121Z,19.90
2023-05-18T14:54:51.121Z,20.10
2023-05-18T14:57:20.737Z,20.20
2023-05-18T14:59:48.740Z,20.30
2023-05-18T15:02:16.883Z,20.30
2023-05-18T15:04:45.124Z,20.40
2023-05-18T15:07:13.275Z,20.40
2023-05-18T15:09:41.281Z,20.50
2023-05-18T15:12:09.826Z,20.60
2023-05-18T15:14:39.223Z,20.80
2023-05-18T15:17:08.649Z,20.90
2023-05-18T15:19:37.001Z,20.80
2023-05-18T15:22:05.301Z,20.70
2023-05-18T15:24:33.270Z,20.60
2023-05-18T15:27:03.499Z,20.60
2023-05-18T15:29:31.549Z,20.70
2023-05-18T15:32:01.080Z,20.90
2023-05-18T15:34:29.834Z,20.90
2023-05-18T15:36:59.003Z,20.70
2023-05-18T15:39:26.960Z,20.60
2023-05-18T15:41:54.960Z,20.60
2023-05-18T15:44:22.941Z,20.70
2023-05-18T15:46:51.623Z,20.80
2023-05-18T15:49:21.760Z,20.80
2023-05-18T15:51:49.769Z,20.80
2023-05-18T15:54:17.917Z,20.80
2023-05-18T15:56:46.041Z,20.80
2023-05-18T15:59:14.038Z,21.00
2023-05-18T16:01:42.068Z,21.10
2023-05-18T16:04:10.089Z,21.20
2023-05-18T16:06:39.440Z,21.20
2023-05-18T16:09:07.558Z,21.30
2023-05-18T16:11:36.570Z,21.20
2023-05-18T16:14:04.895Z,21.10
2023-05-18T16:16:33.000Z,20.90
2023-05-18T16:19:02.292Z,20.70
2023-05-18T16:21:31.670Z,20.50
2023-05-18T16:24:01.102Z,20.30
2023-05-18T16:26:29.176Z,20.30
2023-05-18T16:28:57.190Z,20.40
2023-05-18T16:31:25.210Z,20.50
2023-05-18T16:33:53.237Z,20.60
2023-05-18T16:36:21.298Z,20.70
2023-05-18T16:38:49.313Z,20.70
2023-05-18T16:41:18.710Z,20.70
2023-05-18T16:43:46.713Z,20.60
2023-05-18T16:46:14.815Z,20.50
2023-05-18T16:48:42.790Z,20.40
2023-05-18T16:51:10.846Z,20.30
2023-05-18T16:53:40.356Z,20.20
2023-05-18T16:56:08.366Z,20.30
2023-05-18T16:58:37.734Z,20.20
2023-05-18T17:01:15.824Z,20.20
2023-05-18T17:03:53.925Z,20.20
2023-05-18T17:06:22.035Z,20.30
2023-05-18T17:08:53.138Z,20.30
2023-05-18T17:11:21.175Z,20.30
2023-05-18T17:13:52.024Z,20.30
2023-05-18T17:16:21.699Z,20.20
2023-05-18T17:18:49.784Z,20.10
2023-05-18T17:21:17.819Z,20.00
2023-05-18T17:23:45.803Z,20.00
2023-05-18T17:26:13.874Z,19.90
2023-05-18T17:28:42.033Z,19.90
2023-05-18T17:31:11.488Z,19.80
2023-05-18T17:33:39.548Z,19.70
2023-05-18T17:36:08.205Z,19.70
2023-05-18T17:38:36.198Z,19.50
2023-05-18T17:41:05.373Z,19.50
2023-05-18T17:43:33.482Z,19.40
2023-05-18T17:46:01.541Z,19.40
2023-05-18T17:48:31.033Z,19.40
2023-05-18T17:50:59.216Z,19.30
2023-05-18T17:53:27.267Z,19.30
2023-05-18T17:55:55.403Z,19.20
2023-05-18T17:58:23.621Z,19.10
2023-05-18T18:00:51.811Z,19.00
2023-05-18T18:03:20.945Z,18.90
2023-05-18T18:05:50.526Z,18.90
2023-05-18T18:08:18.572Z,18.90
2023-05-18T18:10:46.661Z,18.80
2023-05-18T18:13:14.607Z,18.70
2023-05-18T18:15:44.045Z,18.60
2023-05-18T18:18:12.205Z,18.60
2023-05-18T18:20:40.349Z,18.60
2023-05-18T18:23:09.756Z,18.60
2023-05-18T18:25:37.801Z,18.50
2023-05-18T18:28:07.980Z,18.50
2023-05-18T18:30:35.989Z,18.40
2023-05-18T18:33:04.010Z,18.40
2023-05-18T18:35:32.122Z,18.40
2023-05-18T18:38:00.166Z,18.30
2023-05-18T18:40:29.731Z,18.30
2023-05-18T18:42:57.907Z,18.20
2023-05-18T18:45:26.876Z,18.10
2023-05-18T18:47:54.968Z,18.10
2023-05-18T18:50:23.217Z,18.00
2023-05-18T18:52:51.235Z,17.90
2023-05-18T18:55:19.434Z,17.90
2023-05-18T18:57:48.816Z,17.80
2023-05-18T19:00:20.076Z,17.70
2023-05-18T19:02:48.130Z,17.70
2023-05-18T19:05:21.405Z,17.60
2023-05-18T19:07:50.378Z,17.50
2023-05-18T19:10:18.391Z,17.50
2023-05-18T19:12:46.406Z,17.40
2023-05-18T19:15:16.248Z,17.40
2023-05-18T19:17:45.904Z,17.30
2023-05-18T19:20:14.126Z,17.30
2023-05-18T19:22:42.537Z,17.20
2023-05-18T19:25:11.124Z,17.10
2023-05-18T19:27:39.117Z,17.10
2023-05-18T19:30:08.522Z,17.10
2023-05-18T19:32:37.927Z,17.00
2023-05-18T19:35:06.140Z,17.00
2023-05-18T19:37:34.148Z,16.90
2023-05-18T19:40:02.151Z,16.90
2023-05-18T19:42:30.178Z,16.90
2023-05-18T19:44:58.286Z,16.80
2023-05-18T19:47:26.459Z,16.80
2023-05-18T19:49:55.896Z,16.70
2023-05-18T19:52:23.865Z,16.70
2023-05-18T19:54:51.863Z,16.50
2023-05-18T19:57:21.313Z,16.30
2023-05-18T19:59:49.310Z,16.10
2023-05-18T20:02:17.333Z,16.00
2023-05-18T20:04:46.145Z,15.90
2023-05-18T20:07:17.043Z,15.80
2023-05-18T20:09:45.085Z,15.70
2023-05-18T20:12:13.117Z,15.60
2023-05-18T20:14:42.789Z,15.50
2023-05-18T20:17:10.792Z,15.40
2023-05-18T20:19:39.130Z,15.30
2023-05-18T20:22:09.149Z,15.20
2023-05-18T20:24:38.692Z,15.20
2023-05-18T20:27:07.798Z,15.10
2023-05-18T20:29:35.980Z,15.00
2023-05-18T20:32:04.133Z,15.00
2023-05-18T20:34:32.279Z,14.90
2023-05-18T20:37:00.515Z,14.90
2023-05-18T20:39:29.180Z,14.80
2023-05-18T20:42:01.226Z,14.70
2023-05-18T20:44:29.314Z,14.70
2023-05-18T20:46:57.477Z,14.70
2023-05-18T20:49:25.951Z,14.60
2023-05-18T20:51:54.108Z,14.60
2023-05-18T20:54:22.342Z,14.60
2023-05-18T20:56:51.338Z,14.50
2023-05-18T20:59:21.540Z,14.40
2023-05-18T21:01:51.004Z,14.40
2023-05-18T21:04:19.670Z,14.30
2023-05-18T21:06:49.362Z,14.30
2023-05-18T21:09:19.356Z,14.30
2023-05-18T21:11:47.570Z,14.30
2023-05-18T21:14:15.890Z,14.30
2023-05-18T21:16:45.532Z,14.30
2023-05-18T21:19:13.651Z,14.30
2023-05-18T21:21:41.771Z,14.20
2023-05-18T21:24:10.050Z,14.20
2023-05-18T21:26:38.130Z,14.10
2023-05-18T21:29:06.227Z,14.10
2023-05-18T21:31:34.475Z,14.10
2023-05-18T21:34:03.975Z,14.10
2023-05-18T21:36:34.179Z,14.10
2023-05-18T21:39:03.921Z,14.10
2023-05-18T21:41:32.180Z,14.10
2023-05-18T21:44:00.184Z,14.00
2023-05-18T21:46:28.576Z,14.00
2023-05-18T21:48:56.613Z,14.00
2023-05-18T21:51:26.116Z,13.90
2023-05-18T21:53:54.092Z,13.90
2023-05-18T21:56:22.489Z,13.90
2023-05-18T21:58:50.473Z,13.80
2023-05-18T22:01:21.091Z,13.80
2023-05-18T22:03:49.231Z,13.80
2023-05-18T22:06:17.887Z,13.80
2023-05-18T22:08:47.357Z,13.80
2023-05-18T22:11:16.281Z,13.70
2023-05-18T22:13:44.309Z,13.70
2023-05-18T22:16:12.291Z,13.60
2023-05-18T22:18:40.353Z,13.60
2023-05-18T22:21:08.493Z,13.50
2023-05-18T22:23:37.308Z,13.40
2023-05-18T22:26:07.077Z,13.40
2023-05-18T22:28:35.104Z,13.40
2023-05-18T22:31:03.081Z,13.40
2023-05-18T22:33:31.071Z,13.30
2023-05-18T22:35:59.065Z,13.30
2023-05-18T22:38:27.710Z,13.30
2023-05-18T22:40:55.727Z,13.30
2023-05-18T22:43:26.052Z,13.20
2023-05-18T22:45:54.047Z,13.20
2023-05-18T22:48:22.104Z,13.10
2023-05-18T22:50:50.088Z,13.10
2023-05-18T22:53:18.212Z,13.00
2023-05-18T22:55:46.218Z,13.00
2023-05-18T22:58:14.277Z,12.90
2023-05-18T23:00:43.612Z,12.90
2023-05-18T23:03:11.632Z,12.90
2023-05-18T23:05:41.241Z,12.80
2023-05-18T23:08:09.550Z,12.80
2023-05-18T23:10:37.628Z,12.80
2023-05-18T23:13:05.671Z,12.70
2023-05-18T23:15:34.375Z,12.60
2023-05-18T23:18:03.863Z,12.60
2023-05-18T23:20:34.617Z,12.60
2023-05-18T23:23:02.762Z,12.60
2023-05-18T23:25:30.983Z,12.50
2023-05-18T23:27:59.024Z,12.60
2023-05-18T23:30:27.114Z,12.60
2023-05-18T23:32:56.603Z,12.50
2023-05-18T23:35:26.935Z,12.50
2023-05-18T23:37:58.021Z,12.50
2023-05-18T23:40:26.550Z,12.50
2023-05-18T23:42:55.162Z,12.50
2023-05-18T23:45:24.563Z,12.40
2023-05-18T23:47:56.036Z,12.40
2023-05-18T23:50:26.121Z,12.40
2023-05-18T23:52:54.408Z,12.40
2023-05-18T23:55:24.909Z,12.40
2023-05-18T23:57:53.853Z,12.40
